createdAt,value
2017-12-20T00:02:26.928Z,22.00
2017-12-20T00:04:54.395Z,23.23
2017-12-20T00:07:22.178Z,22.27
2017-12-20T00:09:49.665Z,22.17
2017-12-20T00:12:17.920Z,20.60
2017-12-20T00:14:45.464Z,21.37
2017-12-20T00:17:13.711Z,19.98
2017-12-20T00:19:41.446Z,22.13
2017-12-20T00:22:08.919Z,24.30
2017-12-20T00:24:37.175Z,23.00
2017-12-20T00:27:05.443Z,21.50
2017-12-20T00:29:33.710Z,22.60
2017-12-20T00:32:01.996Z,25.55
2017-12-20T00:34:29.460Z,23.50
2017-12-20T00:36:56.945Z,24.12
2017-12-20T00:39:25.232Z,25.42
2017-12-20T00:41:52.692Z,24.55
2017-12-20T00:44:20.556Z,25.88
2017-12-20T00:46:48.044Z,26.77
2017-12-20T00:49:16.403Z,25.42
2017-12-20T00:51:45.022Z,27.70
2017-12-20T00:54:12.503Z,24.80
2017-12-20T00:56:40.056Z,27.52
2017-12-20T00:59:08.283Z,27.67
2017-12-20T01:01:35.780Z,27.00
2017-12-20T01:04:03.352Z,29.60
2017-12-20T01:06:30.849Z,26.60
2017-12-20T01:08:59.105Z,33.45
2017-12-20T01:11:26.659Z,32.70
2017-12-20T01:13:55.007Z,31.92
2017-12-20T01:16:23.272Z,30.42
2017-12-20T01:18:51.495Z,30.80
2017-12-20T01:21:18.992Z,30.60
2017-12-20T01:23:46.516Z,31.12
2017-12-20T01:26:14.776Z,29.37
2017-12-20T01:28:43.008Z,28.62
2017-12-20T01:31:10.469Z,32.25
2017-12-20T01:33:37.949Z,30.52
2017-12-20T01:36:05.820Z,30.85
2017-12-20T01:38:33.308Z,29.37
2017-12-20T01:41:00.851Z,26.80
2017-12-20T01:43:28.489Z,28.00
2017-12-20T01:45:56.303Z,27.75
2017-12-20T01:48:24.479Z,28.65
2017-12-20T01:50:52.005Z,31.12
2017-12-20T01:53:19.468Z,30.48
2017-12-20T01:55:46.956Z,31.48
2017-12-20T01:58:15.183Z,28.90
2017-12-20T02:00:42.780Z,31.25
2017-12-20T02:03:11.014Z,28.08
2017-12-20T02:05:38.489Z,31.02
2017-12-20T02:08:05.952Z,29.73
2017-12-20T02:10:33.409Z,32.28
2017-12-20T02:13:00.988Z,31.30
2017-12-20T02:15:29.095Z,29.15
2017-12-20T02:17:56.548Z,29.48
2017-12-20T02:20:24.031Z,30.12
2017-12-20T02:22:52.396Z,29.73
2017-12-20T02:25:20.648Z,33.88
2017-12-20T02:27:48.889Z,30.90
2017-12-20T02:30:16.815Z,33.65
2017-12-20T02:32:44.268Z,31.95
2017-12-20T02:35:12.116Z,33.50
2017-12-20T02:37:39.600Z,34.45
2017-12-20T02:40:07.142Z,33.15
2017-12-20T02:42:35.382Z,33.25
2017-12-20T02:45:02.944Z,31.55
2017-12-20T02:47:31.212Z,34.90
2017-12-20T02:49:59.584Z,32.53
2017-12-20T02:52:27.882Z,34.13
2017-12-20T02:54:55.340Z,32.28
2017-12-20T02:57:22.795Z,33.72
2017-12-20T02:59:50.288Z,32.53
2017-12-20T03:02:17.748Z,32.33
2017-12-20T03:04:45.598Z,36.58
2017-12-20T03:07:13.193Z,32.25
2017-12-20T03:09:41.415Z,32.38
2017-12-20T03:12:08.872Z,32.53
2017-12-20T03:14:36.349Z,32.35
2017-12-20T03:17:04.696Z,33.38
2017-12-20T03:19:32.924Z,33.58
2017-12-20T03:22:00.398Z,34.17
2017-12-20T03:24:27.856Z,33.20
2017-12-20T03:26:56.460Z,34.38
2017-12-20T03:29:23.920Z,35.75
2017-12-20T03:31:51.376Z,35.20
2017-12-20T03:34:18.937Z,39.25
2017-12-20T03:36:47.194Z,36.72
2017-12-20T03:39:15.428Z,39.58
2017-12-20T03:41:43.255Z,34.85
2017-12-20T03:44:10.725Z,37.03
2017-12-20T03:46:39.366Z,38.20
2017-12-20T03:49:06.824Z,39.17
2017-12-20T03:51:34.576Z,34.90
2017-12-20T03:54:02.048Z,35.55
2017-12-20T03:56:30.304Z,37.63
2017-12-20T03:58:57.850Z,36.40
2017-12-20T04:01:25.306Z,34.75
2017-12-20T04:03:54.629Z,36.53
2017-12-20T04:06:22.081Z,36.63
2017-12-20T04:08:50.548Z,36.75
2017-12-20T04:11:18.028Z,37.83
2017-12-20T04:13:46.245Z,35.90
2017-12-20T04:16:13.719Z,38.47
2017-12-20T04:18:41.734Z,37.15
2017-12-20T04:21:09.220Z,36.97
2017-12-20T04:23:36.684Z,36.60
2017-12-20T04:26:04.157Z,36.88
2017-12-20T04:28:31.632Z,37.85
2017-12-20T04:30:59.095Z,37.13
2017-12-20T04:33:27.352Z,33.78
2017-12-20T04:35:55.972Z,33.85
2017-12-20T04:38:23.736Z,30.17
2017-12-20T04:40:51.220Z,35.72
2017-12-20T04:43:19.472Z,35.08
2017-12-20T04:45:47.703Z,33.20
2017-12-20T04:48:15.171Z,31.90
2017-12-20T04:50:43.432Z,32.28
2017-12-20T04:53:11.688Z,35.55
2017-12-20T04:55:39.951Z,34.65
2017-12-20T04:58:08.180Z,33.95
2017-12-20T05:00:35.642Z,33.15
2017-12-20T05:03:03.123Z,34.90
2017-12-20T05:05:31.144Z,32.50
2017-12-20T05:07:58.604Z,35.40
2017-12-20T05:10:26.861Z,36.35
2017-12-20T05:12:55.472Z,35.85
2017-12-20T05:15:23.322Z,37.65
2017-12-20T05:17:50.777Z,36.95
2017-12-20T05:20:19.064Z,35.95
2017-12-20T05:22:47.332Z,39.95
2017-12-20T05:25:16.077Z,39.75
2017-12-20T05:27:43.598Z,34.95
2017-12-20T05:30:11.053Z,32.47
2017-12-20T05:32:38.889Z,32.25
2017-12-20T05:35:06.383Z,37.42
2017-12-20T05:37:35.464Z,37.28
2017-12-20T05:40:03.691Z,40.42
2017-12-20T05:42:31.265Z,38.28
2017-12-20T05:45:00.132Z,36.63
2017-12-20T05:47:28.552Z,35.10
2017-12-20T05:49:56.001Z,37.15
2017-12-20T05:52:24.168Z,37.30
2017-12-20T05:54:51.629Z,34.42
2017-12-20T05:57:19.531Z,36.38
2017-12-20T05:59:46.988Z,35.35
2017-12-20T06:02:14.448Z,35.33
2017-12-20T06:04:41.917Z,33.53
2017-12-20T06:07:09.952Z,36.92
2017-12-20T06:09:37.524Z,35.30
2017-12-20T06:12:05.777Z,36.58
2017-12-20T06:14:34.604Z,35.75
2017-12-20T06:17:02.811Z,35.42
2017-12-20T06:19:31.036Z,33.72
2017-12-20T06:21:58.496Z,34.42
2017-12-20T06:24:25.968Z,33.83
2017-12-20T06:26:54.191Z,31.33
2017-12-20T06:29:21.757Z,33.30
2017-12-20T06:31:50.017Z,33.63
2017-12-20T06:34:18.280Z,35.47
2017-12-20T06:36:46.541Z,32.22
2017-12-20T06:39:14.763Z,33.17
2017-12-20T06:41:43.109Z,35.50
2017-12-20T06:44:10.560Z,34.80
2017-12-20T06:46:38.144Z,34.50
2017-12-20T06:49:05.691Z,33.38
2017-12-20T06:51:33.960Z,36.63
2017-12-20T06:54:02.213Z,32.45
2017-12-20T06:56:30.448Z,33.70
2017-12-20T06:59:00.265Z,34.53
2017-12-20T07:01:27.815Z,33.95
2017-12-20T07:03:56.924Z,33.65
2017-12-20T07:06:24.384Z,36.70
2017-12-20T07:08:52.451Z,33.95
2017-12-20T07:11:19.941Z,33.88
2017-12-20T07:13:48.915Z,34.00
2017-12-20T07:16:17.140Z,34.90
2017-12-20T07:18:44.966Z,37.28
2017-12-20T07:21:12.513Z,33.42
2017-12-20T07:23:39.968Z,35.95
2017-12-20T07:26:08.205Z,38.35
2017-12-20T07:28:35.668Z,36.58
2017-12-20T07:31:03.568Z,33.22
2017-12-20T07:33:31.028Z,32.85
2017-12-20T07:35:58.588Z,33.40
2017-12-20T07:38:26.833Z,31.70
2017-12-20T07:40:54.392Z,31.60
2017-12-20T07:43:22.650Z,32.58
2017-12-20T07:45:50.191Z,33.45
2017-12-20T07:48:18.452Z,32.33
2017-12-20T07:50:46.708Z,33.90
2017-12-20T07:53:14.170Z,31.55
2017-12-20T07:55:42.468Z,33.75
2017-12-20T07:58:09.965Z,34.33
2017-12-20T08:00:38.228Z,33.50
2017-12-20T08:03:06.452Z,33.88
2017-12-20T08:05:34.285Z,32.75
2017-12-20T08:08:01.765Z,31.67
2017-12-20T08:10:29.234Z,31.45
2017-12-20T08:12:56.687Z,32.17
2017-12-20T08:15:24.417Z,34.45
2017-12-20T08:17:51.916Z,31.58
2017-12-20T08:20:20.160Z,32.22
2017-12-20T08:22:48.400Z,31.55
2017-12-20T08:25:16.628Z,31.33
2017-12-20T08:27:44.124Z,30.60
2017-12-20T08:30:11.600Z,29.25
2017-12-20T08:32:39.119Z,30.80
2017-12-20T08:35:07.331Z,30.23
2017-12-20T08:37:34.852Z,31.05
2017-12-20T08:40:03.080Z,29.20
2017-12-20T08:42:30.532Z,29.25
2017-12-20T08:44:59.616Z,32.35
2017-12-20T08:47:27.432Z,28.50
2017-12-20T08:49:55.944Z,28.35
2017-12-20T08:52:24.207Z,27.10
2017-12-20T08:54:52.228Z,29.40
2017-12-20T08:57:20.380Z,30.10
2017-12-20T08:59:47.864Z,29.00
2017-12-20T09:02:16.173Z,30.42
2017-12-20T09:04:43.665Z,30.50
2017-12-20T09:07:11.466Z,30.70
2017-12-20T09:09:39.946Z,30.05
2017-12-20T09:12:07.424Z,28.65
2017-12-20T09:14:35.711Z,32.00
2017-12-20T09:17:03.181Z,30.10
2017-12-20T09:19:30.644Z,30.12
2017-12-20T09:21:58.713Z,30.70
2017-12-20T09:24:26.182Z,28.27
2017-12-20T09:26:54.404Z,29.10
2017-12-20T09:29:21.968Z,30.73
2017-12-20T09:31:50.220Z,29.55
2017-12-20T09:34:18.027Z,27.73
2017-12-20T09:36:45.482Z,28.15
2017-12-20T09:39:12.950Z,28.80
2017-12-20T09:41:40.448Z,28.60
2017-12-20T09:44:08.696Z,31.55
2017-12-20T09:46:36.251Z,28.67
2017-12-20T09:49:03.714Z,28.62
2017-12-20T09:51:31.240Z,29.23
2017-12-20T09:53:59.496Z,27.90
2017-12-20T09:56:27.759Z,26.48
2017-12-20T09:58:56.020Z,28.50
2017-12-20T10:01:24.279Z,29.33
2017-12-20T10:03:53.120Z,28.87
2017-12-20T10:06:20.616Z,27.02
2017-12-20T10:08:48.076Z,29.02
2017-12-20T10:11:16.040Z,27.35
2017-12-20T10:13:44.264Z,28.12
2017-12-20T10:16:12.603Z,27.48
2017-12-20T10:18:40.065Z,28.58
2017-12-20T10:21:08.308Z,24.55
2017-12-20T10:23:36.576Z,24.12
2017-12-20T10:26:05.393Z,27.58
2017-12-20T10:28:32.884Z,32.17
2017-12-20T10:31:00.344Z,28.35
2017-12-20T10:33:28.572Z,28.75
2017-12-20T10:35:56.143Z,29.12
2017-12-20T10:38:24.387Z,29.40
2017-12-20T10:40:51.853Z,26.87
2017-12-20T10:43:20.076Z,26.83
2017-12-20T10:45:47.560Z,26.52
2017-12-20T10:48:15.797Z,27.15
2017-12-20T10:50:44.263Z,28.27
2017-12-20T10:53:11.817Z,29.35
2017-12-20T10:55:40.088Z,28.52
2017-12-20T10:58:08.320Z,29.23
2017-12-20T11:00:36.614Z,30.15
2017-12-20T11:03:04.864Z,28.10
2017-12-20T11:05:33.111Z,28.40
2017-12-20T11:08:00.573Z,25.30
2017-12-20T11:10:29.179Z,27.30
2017-12-20T11:12:57.029Z,26.37
2017-12-20T11:15:24.516Z,25.35
2017-12-20T11:17:52.068Z,25.90
2017-12-20T11:20:20.304Z,27.37
2017-12-20T11:22:47.771Z,24.77
2017-12-20T11:25:16.028Z,24.63
2017-12-20T11:27:44.294Z,24.30
2017-12-20T11:30:12.520Z,22.42
2017-12-20T11:32:40.454Z,23.85
2017-12-20T11:35:07.939Z,22.55
2017-12-20T11:37:35.399Z,26.40
2017-12-20T11:40:02.855Z,23.60
2017-12-20T11:42:30.423Z,25.50
2017-12-20T11:44:58.331Z,24.40
2017-12-20T11:47:25.815Z,23.85
2017-12-20T11:49:53.287Z,24.50
2017-12-20T11:52:21.345Z,23.83
2017-12-20T11:54:49.128Z,25.17
2017-12-20T11:57:16.969Z,27.75
2017-12-20T11:59:44.596Z,28.95
2017-12-20T12:02:12.112Z,28.33
2017-12-20T12:04:40.335Z,28.25
2017-12-20T12:07:09.532Z,27.35
2017-12-20T12:09:37.088Z,27.98
2017-12-20T12:12:04.590Z,26.90
2017-12-20T12:14:32.908Z,28.73
2017-12-20T12:17:01.135Z,25.83
2017-12-20T12:19:28.616Z,30.10
2017-12-20T12:21:56.080Z,25.85
2017-12-20T12:24:23.536Z,24.15
2017-12-20T12:26:51.005Z,27.20
2017-12-20T12:29:18.560Z,26.30
2017-12-20T12:31:46.824Z,23.02
2017-12-20T12:34:15.090Z,21.98
2017-12-20T12:36:42.556Z,23.87
2017-12-20T12:39:10.020Z,23.10
2017-12-20T12:41:37.478Z,23.10
2017-12-20T12:44:04.964Z,23.15
2017-12-20T12:46:33.226Z,21.40
2017-12-20T12:49:02.304Z,21.75
2017-12-20T12:51:30.553Z,21.30
2017-12-20T12:53:59.383Z,23.23
2017-12-20T12:56:27.573Z,21.15
2017-12-20T12:58:55.056Z,20.52
2017-12-20T13:01:22.516Z,21.73
2017-12-20T13:03:49.977Z,21.52
2017-12-20T13:06:17.497Z,20.08
2017-12-20T13:08:45.702Z,21.17
2017-12-20T13:11:13.625Z,21.30
2017-12-20T13:13:41.125Z,23.62
2017-12-20T13:16:09.979Z,21.23
2017-12-20T13:18:37.448Z,20.88
2017-12-20T13:21:05.693Z,22.52
2017-12-20T13:23:33.956Z,22.42
2017-12-20T13:26:02.216Z,24.00
2017-12-20T13:28:30.571Z,23.67
2017-12-20T13:30:58.836Z,22.98
2017-12-20T13:33:27.090Z,23.85
2017-12-20T13:35:56.163Z,24.83
2017-12-20T13:38:26.216Z,24.02
2017-12-20T13:40:53.669Z,23.08
2017-12-20T13:43:21.507Z,25.70
2017-12-20T13:45:48.952Z,20.77
2017-12-20T13:48:16.449Z,22.85
2017-12-20T13:50:45.163Z,21.77
2017-12-20T13:53:12.651Z,21.35
2017-12-20T13:55:40.919Z,22.67
2017-12-20T13:58:09.153Z,21.95
2017-12-20T14:00:36.775Z,24.70
2017-12-20T14:03:04.259Z,20.75
2017-12-20T14:05:32.390Z,21.90
2017-12-20T14:07:59.864Z,18.02
2017-12-20T14:10:28.491Z,21.10
2017-12-20T14:12:55.967Z,19.35
2017-12-20T14:15:24.200Z,20.50
2017-12-20T14:17:51.659Z,19.52
2017-12-20T14:20:19.213Z,21.33
2017-12-20T14:22:47.834Z,19.83
2017-12-20T14:25:15.306Z,20.65
2017-12-20T14:27:42.776Z,21.02
2017-12-20T14:30:11.003Z,21.25
2017-12-20T14:32:38.929Z,21.45
2017-12-20T14:35:06.419Z,18.30
2017-12-20T14:37:33.987Z,20.90
2017-12-20T14:40:02.912Z,19.15
2017-12-20T14:42:30.405Z,21.40
2017-12-20T14:44:58.636Z,19.33
2017-12-20T14:47:26.105Z,21.70
2017-12-20T14:49:54.359Z,19.45
2017-12-20T14:52:22.444Z,19.50
2017-12-20T14:54:49.960Z,20.08
2017-12-20T14:57:17.424Z,23.23
2017-12-20T14:59:45.306Z,19.50
2017-12-20T15:02:12.796Z,21.67
2017-12-20T15:04:40.256Z,22.42
2017-12-20T15:07:08.504Z,21.75
2017-12-20T15:09:37.323Z,23.10
2017-12-20T15:12:04.820Z,31.87
2017-12-20T15:14:32.287Z,24.12
2017-12-20T15:17:00.427Z,35.88
2017-12-20T15:19:28.647Z,24.17
2017-12-20T15:21:56.577Z,20.92
2017-12-20T15:24:24.069Z,24.15
2017-12-20T15:26:52.329Z,22.42
2017-12-20T15:29:20.948Z,24.70
2017-12-20T15:31:48.798Z,22.00
2017-12-20T15:34:16.249Z,25.80
2017-12-20T15:36:43.711Z,24.73
2017-12-20T15:39:11.189Z,21.08
2017-12-20T15:41:39.486Z,20.73
2017-12-20T15:44:07.721Z,23.02
2017-12-20T15:46:35.944Z,21.23
2017-12-20T15:49:03.409Z,20.62
2017-12-20T15:51:30.967Z,23.98
2017-12-20T15:53:59.640Z,24.25
2017-12-20T15:56:27.908Z,21.52
2017-12-20T15:58:56.157Z,25.27
2017-12-20T16:01:23.616Z,27.87
2017-12-20T16:03:51.144Z,27.58
2017-12-20T16:06:19.400Z,26.55
2017-12-20T16:08:47.656Z,27.13
2017-12-20T16:11:15.208Z,25.00
2017-12-20T16:13:43.441Z,26.80
2017-12-20T16:16:10.895Z,26.55
2017-12-20T16:18:38.370Z,26.70
2017-12-20T16:21:07.041Z,25.05
2017-12-20T16:23:34.500Z,26.08
2017-12-20T16:26:02.004Z,25.27
2017-12-20T16:28:30.364Z,24.95
2017-12-20T16:30:58.628Z,25.33
2017-12-20T16:33:26.883Z,26.08
2017-12-20T16:35:55.131Z,27.05
2017-12-20T16:38:23.048Z,27.77
2017-12-20T16:40:50.500Z,25.80
2017-12-20T16:43:17.964Z,25.83
2017-12-20T16:45:45.552Z,26.05
2017-12-20T16:48:13.062Z,26.80
2017-12-20T16:50:40.611Z,27.25
2017-12-20T16:53:09.629Z,27.95
2017-12-20T16:55:37.136Z,26.42
2017-12-20T16:58:05.400Z,26.87
2017-12-20T17:00:33.960Z,27.27
2017-12-20T17:03:01.508Z,26.10
2017-12-20T17:05:29.765Z,26.60
2017-12-20T17:07:58.384Z,29.50
2017-12-20T17:10:25.860Z,30.50
2017-12-20T17:12:53.337Z,30.05
2017-12-20T17:15:21.535Z,27.65
2017-12-20T17:17:48.996Z,26.37
2017-12-20T17:20:16.604Z,27.92
2017-12-20T17:22:44.591Z,28.25
2017-12-20T17:25:12.944Z,30.45
2017-12-20T17:27:40.425Z,29.20
2017-12-20T17:30:08.687Z,28.55
2017-12-20T17:32:36.940Z,30.58
2017-12-20T17:35:05.767Z,27.92
2017-12-20T17:37:33.817Z,31.70
2017-12-20T17:40:01.321Z,32.00
2017-12-20T17:42:29.553Z,29.85
2017-12-20T17:44:57.012Z,29.77
2017-12-20T17:47:26.092Z,28.45
2017-12-20T17:49:54.315Z,29.23
2017-12-20T17:52:21.788Z,30.83
2017-12-20T17:54:49.695Z,30.27
2017-12-20T17:57:17.237Z,34.08
2017-12-20T17:59:44.696Z,32.83
2017-12-20T18:02:12.181Z,28.20
2017-12-20T18:04:40.408Z,29.42
2017-12-20T18:07:07.894Z,27.87
2017-12-20T18:09:36.236Z,29.55
2017-12-20T18:12:04.496Z,29.10
2017-12-20T18:14:32.044Z,32.88
2017-12-20T18:22:33.978Z,31.85
2017-12-20T18:25:01.447Z,29.27
2017-12-20T18:27:29.655Z,27.95
2017-12-20T18:29:57.236Z,30.77
2017-12-20T18:32:25.456Z,30.83
2017-12-20T18:34:52.945Z,29.75
2017-12-20T18:37:20.484Z,28.77
2017-12-20T18:39:48.724Z,30.40
2017-12-20T18:42:16.232Z,29.85
2017-12-20T18:44:44.035Z,29.85
2017-12-20T18:47:12.297Z,28.48
2017-12-20T18:49:40.553Z,24.05
2017-12-20T18:52:08.815Z,22.05
2017-12-20T18:54:36.269Z,24.05
2017-12-20T18:57:04.510Z,24.77
2017-12-20T18:59:31.971Z,25.12
2017-12-20T19:02:00.211Z,25.20
2017-12-20T19:04:27.808Z,23.08
2017-12-20T19:06:55.361Z,25.27
2017-12-20T19:09:22.848Z,22.52
2017-12-20T19:11:50.292Z,24.05
2017-12-20T19:14:18.546Z,24.67
2017-12-20T19:16:46.009Z,23.10
2017-12-20T19:19:13.665Z,21.80
2017-12-20T19:21:41.239Z,23.40
2017-12-20T19:24:08.958Z,23.27
2017-12-20T19:26:36.432Z,22.60
2017-12-20T19:29:04.007Z,27.02
2017-12-20T19:31:31.595Z,24.35
2017-12-20T19:33:59.107Z,25.30
2017-12-20T19:36:27.341Z,26.85
2017-12-20T19:38:54.842Z,22.83
2017-12-20T19:41:22.308Z,23.00
2017-12-20T19:43:49.765Z,24.10
2017-12-20T19:46:17.381Z,23.25
2017-12-20T19:48:44.977Z,23.15
2017-12-20T19:51:13.237Z,22.37
2017-12-20T19:53:41.469Z,27.10
2017-12-20T19:56:08.940Z,24.40
2017-12-20T19:58:37.191Z,25.33
2017-12-20T20:01:04.655Z,26.60
2017-12-20T20:03:32.898Z,21.10
2017-12-20T20:06:00.483Z,20.27
2017-12-20T20:08:27.938Z,18.70
2017-12-20T20:10:55.433Z,24.48
2017-12-20T20:13:23.708Z,18.67
2017-12-20T20:15:51.429Z,19.80
2017-12-20T20:18:19.663Z,20.42
2017-12-20T20:20:47.132Z,20.33
2017-12-20T20:23:14.680Z,20.40
2017-12-20T20:25:42.936Z,19.92
2017-12-20T20:28:10.392Z,22.42
2017-12-20T20:30:38.653Z,21.50
2017-12-20T20:33:06.884Z,19.05
2017-12-20T20:35:34.343Z,19.40
2017-12-20T20:38:01.884Z,20.30
2017-12-20T20:40:30.104Z,18.75
2017-12-20T20:42:57.581Z,20.83
2017-12-20T20:45:25.129Z,20.30
2017-12-20T20:47:53.440Z,21.95
2017-12-20T20:50:20.914Z,21.20
2017-12-20T20:52:48.373Z,20.42
2017-12-20T20:55:16.656Z,20.15
2017-12-20T20:57:44.121Z,24.33
2017-12-20T21:00:17.856Z,21.35
2017-12-20T21:02:45.340Z,18.92
2017-12-20T21:05:12.856Z,19.65
2017-12-20T21:07:41.114Z,21.83
2017-12-20T21:10:11.296Z,18.95
2017-12-20T21:12:38.759Z,17.58
2017-12-20T21:15:07.004Z,19.15
2017-12-20T21:17:34.480Z,18.90
2017-12-20T21:20:02.011Z,18.58
2017-12-20T21:22:30.240Z,18.83
2017-12-20T21:24:57.801Z,18.50
2017-12-20T21:27:26.065Z,17.10
2017-12-20T21:29:54.343Z,18.08
2017-12-20T21:32:22.592Z,20.02
2017-12-20T21:34:50.845Z,18.52
2017-12-20T21:37:19.088Z,17.40
2017-12-20T21:39:46.541Z,17.98
2017-12-20T21:42:14.021Z,16.73
2017-12-20T21:44:41.542Z,17.95
2017-12-20T21:47:09.760Z,18.92
2017-12-20T21:49:37.331Z,18.37
2017-12-20T21:52:05.564Z,18.77
2017-12-20T21:54:33.048Z,18.45
2017-12-20T21:57:01.301Z,17.60
2017-12-20T21:59:29.664Z,16.92
2017-12-20T22:01:57.092Z,17.05
2017-12-20T22:04:24.567Z,18.95
2017-12-20T22:06:52.288Z,17.10
2017-12-20T22:09:20.549Z,18.45
2017-12-20T22:11:48.772Z,19.95
2017-12-20T22:14:16.251Z,18.65
2017-12-20T22:16:44.508Z,18.48
2017-12-20T22:19:12.780Z,18.42
2017-12-20T22:21:41.477Z,19.87
2017-12-20T22:24:08.928Z,16.35
2017-12-20T22:26:36.391Z,17.33
2017-12-20T22:29:03.878Z,19.92
2017-12-20T22:31:32.115Z,17.35
2017-12-20T22:33:59.668Z,17.60
2017-12-20T22:36:28.032Z,17.12
2017-12-20T22:38:55.488Z,16.42
2017-12-20T22:41:23.740Z,17.42
2017-12-20T22:43:51.973Z,16.02
2017-12-20T22:46:19.544Z,16.75
2017-12-20T22:48:47.800Z,18.00
2017-12-20T22:51:16.027Z,16.40
2017-12-20T22:53:43.484Z,16.30
2017-12-20T22:56:11.032Z,16.83
2017-12-20T22:58:38.586Z,15.68
2017-12-20T23:01:06.236Z,16.75
2017-12-20T23:03:34.472Z,16.05
2017-12-20T23:06:01.940Z,16.67
2017-12-20T23:08:30.184Z,16.62
2017-12-20T23:10:59.152Z,16.35
2017-12-20T23:13:26.608Z,14.80
2017-12-20T23:15:54.838Z,17.02
2017-12-20T23:18:22.324Z,17.00
2017-12-20T23:20:50.562Z,16.60
2017-12-20T23:23:19.536Z,17.05
2017-12-20T23:25:47.004Z,16.33
2017-12-20T23:28:15.252Z,16.92
2017-12-20T23:30:43.526Z,16.37
2017-12-20T23:33:11.752Z,15.88
2017-12-20T23:35:39.317Z,16.95
2017-12-20T23:38:07.557Z,16.75
2017-12-20T23:40:35.018Z,17.92
2017-12-20T23:43:03.282Z,16.30
2017-12-20T23:45:31.540Z,18.33
2017-12-20T23:47:59.760Z,17.98
2017-12-20T23:50:27.598Z,16.45
2017-12-20T23:52:55.088Z,17.15
2017-12-20T23:55:22.627Z,16.92
2017-12-20T23:57:50.100Z,15.20
